出雲 の空港の天気 - METARとTAF

出雲空港 ( RJOC / IZO ) - 島根県斐川町
飛行場実況気象(Metar)
観測時間06/29 10:00 JST (06/29 01:00 UTC)
風向・風速不定 1m/s
視程10km以上
天気現象弱い雨
少しの雲 雲底高度 910m
全天の8割程度の雲 雲底高度 1520m
気温25℃
湿度78%
気圧1014hPa
METARRJOC 290100Z VRB02KT 9999 -RA FEW030 BKN050 25/21 Q1014
過去の天気等 Google飛行場航空写真 Wunderground天気予報

過去48時間のMETAR

飛行場予報(TAF)
発表時間: 6/29 08:05 JST (6/28 23:05 UTC)
予報対象時間: 29日9時 JST ~ 30日15時 JST
風向・風速北北東 2m/s
視程10km以上
天気現象弱い雨
少しの雲 雲底高度 300m
全天の8割程度の雲 雲底高度 1,520m
29日11時 JST ~ 29日13時 JST に徐々に
風向・風速西南西 3m/s
30日0時 JST ~ 30日6時 JST に一時的に
視程3,000m
天気現象雷雨 もや
少しの雲 雲底高度 90m
全天の8割程度の雲 雲底高度 150m
全天の8割程度の雲 雲底高度 300m
少しの積乱雲 雲底高度 610m
30日6時 JST ~ 30日12時 JST に一時的に
視程4,000m
天気現象しゅう雨 もや
少しの雲 雲底高度 90m
全天の4割程度の雲 雲底高度 150m
全天の8割程度の雲 雲底高度 240m
30日9時 JST ~ 30日12時 JST に徐々に
風向・風速西南西 8m/s
TAF RJOC 282305Z 2900/3006 03004KT 9999 -RA FEW010 BKN050
BECMG 2902/2904 25006KT
TEMPO 2915/2921 3000 TSRA BR FEW003 BKN005 BKN010 FEW020CB
TEMPO 2921/3003 4000 SHRA BR FEW003 SCT005 BKN008
BECMG 3000/3003 25016KT
日本の空港のMETAR・TAFへのリンク

RJTT 東京国際空港
RJAA 新東京国際空港
RJBB 関西国際空港
RJOO 大阪空港
RJGG 中部国際空港
RJCC 新千歳空港
RJFF 福岡空港
ROAH 那覇空港


RJEC 旭川空港
RJCH 函館空港
RJCK 釧路空港
RJCM 女満別空港
RJCB 帯広空港
RJSA 青森空港
RJSS 仙台空港
RJSK 秋田空港
RJSF 福島空港
RJAH 茨城空港
RJSN 新潟空港
RJNT 富山空港
RJNK 小松飛行場
RJNS 静岡空港
RJOH 美保飛行場
RJOC 出雲空港
RJOB 岡山空港
RJOA 広島空港
RJOI 岩国飛行場
RJOT 高松空港
RJOM 松山空港
RJOK 高知空港
RJFR 北九州空港
RJFT 熊本空港
RJFU 長崎空港
RJFS 佐賀空港
RJFO 大分空港
RJFM 宮崎空港
RJFK 鹿児島空港
ROIG 石垣島空港
RJTY 横田飛行場
ROTM 普天間飛行場
RODN 嘉手納飛行場